CheckWX is a tool to help pilots better visualize weather data.  It is not intended as a substitute for an official pre-flight weather briefing.

07:15:14 UTC

KALS TAF
San Luis Valley Regional / Bergman Field Airport
Alamosa, Colorado, USA
KALS 170521Z 1706/1806 VRB06KT P6SM FEW150 FM172000 24015G25KT P6SM VCTS BKN100CB FM172200 28015G25KT P6SM VCTS BKN100CB FM180200 31008KT P6SM SCT100 BKN200

Jun-17@
06:00 UTC

Jun-17 @ 06:00 UTC

Jun-17@
20:00 UTC

Jun-17 @ 20:00 UTC

KALS 170521Z 1706/1806 VRB06KT P6SM FEW150
Wind
  • Variable at 6 KTS
Cloud Levels
  • Few at 15,000' AGL

Jun-17@
20:00 UTC

Jun-17 @ 20:00 UTC

Jun-17@
22:00 UTC

Jun-17 @ 22:00 UTC

FM172000 24015G25KT P6SM VCTS BKN100CB

From

From Standard forecast or significant change

Wind
  • 240° at 15 KTS
  • {Gusting to 25 KTS
Conditions
Area Thunderstorm
Cloud Levels
  • Broken at 10,000' AGL

Jun-17@
22:00 UTC

Jun-17 @ 22:00 UTC

Jun-18@
02:00 UTC

Jun-18 @ 02:00 UTC

FM172200 28015G25KT P6SM VCTS BKN100CB

From

From Standard forecast or significant change

Wind
  • 280° at 15 KTS
  • {Gusting to 25 KTS
Conditions
Area Thunderstorm
Cloud Levels
  • Broken at 10,000' AGL

Jun-18@
02:00 UTC

Jun-18 @ 02:00 UTC

Jun-18@
06:00 UTC

Jun-18 @ 06:00 UTC

FM180200 31008KT P6SM SCT100 BKN200

From

From Standard forecast or significant change

Wind
  • 310° at 8 KTS
Cloud Levels
  • Scattered at 10,000' AGL
  • Broken at 20,000' AGL